メインページ
METAR-TAF:

METAR-TAF

空港 :

Chibougamau, ケベック州, カナダ

緯度: 49-46N, 経度: 074-32W, 海抜: 388m

現時点の気象観測

当レポートは58分前の09:00(UTC)に作成
北西の風 9kt、最大15ktの突風を伴う
気温 -19°C
湿度 84%
気圧 1011 hPa
視程: 12.9km
高度4600ftの曇り
小雪

METAR: CYMT 230900Z AUTO 31009G15KT 8SM -SN OVC046 M19/M21 A2984 RMK SLP141

時間: 04:58 (09:58 UTC)

予報

当レポートは16時間19分前の17:39(UTC)に作成
予報は22日の 18時(UTC)から 23日の 01時(UTC)まで有効
変向風 3kt
視程: 9.7km
高度1500ftの雲は散在している
高度3000ftの曇り
小雪
22日の 18時(UTC)から 23日の 01時(UTC)まで一時的に
高度1500ftの千切れ雲あり
高度3000ftの曇り
小雪
確率 30%
22日の 18時(UTC)から 22日の 23時(UTC)まで
高度1200ftの
小雪

TAF: CYMT 221739Z 2218/2301 VRB03KT 6SM -SN SCT015 OVC030 TEMPO 2218/2301 21/2SM -SN BKN015 OVC030 PROB30 2218/2223 11/2SM -SN VV012 RMK FCST BASED ON AUTO OBS. NXT FCST WILL BE ISSUED AT 231245Z

4,000以上の空港の気象観測と天気予報(METAR報とTAF報)

利用可能な観測所は地図上に黄色い丸と赤い丸で示す。

丸の上にカーソルを重ねると観測所名を参照できる。

次にクリックすると気象観測と天気予報を参照できる。

マップの切り替え:黒色「×」印の緑ボタンをクリックして拡大、「-」印の緑ボタンをクリックして縮小、緑色の三角印をクリックして隣りの地図に切り替え


METAR-TAF: